sensor_id;sensor_type;location;lat;lon;timestamp;temperature;humidity
49717;DHT22;35609;53.166;7.610;2023-05-27T00:02:07;4.10;99.90
49717;DHT22;35609;53.166;7.610;2023-05-27T00:04:32;4.10;99.90
49717;DHT22;35609;53.166;7.610;2023-05-27T00:06:58;4.10;99.90
49717;DHT22;35609;53.166;7.610;2023-05-27T00:09:24;4.00;99.90
49717;DHT22;35609;53.166;7.610;2023-05-27T00:11:49;4.10;99.90
49717;DHT22;35609;53.166;7.610;2023-05-27T00:14:15;3.90;99.90
49717;DHT22;35609;53.166;7.610;2023-05-27T00:16:43;4.00;99.90
49717;DHT22;35609;53.166;7.610;2023-05-27T00:19:08;3.90;99.90
49717;DHT22;35609;53.166;7.610;2023-05-27T00:21:34;3.80;99.90
49717;DHT22;35609;53.166;7.610;2023-05-27T00:24:00;3.80;99.90
49717;DHT22;35609;53.166;7.610;2023-05-27T00:26:26;3.50;99.90
49717;DHT22;35609;53.166;7.610;2023-05-27T00:28:51;3.50;99.90
49717;DHT22;35609;53.166;7.610;2023-05-27T00:31:17;3.50;99.90
49717;DHT22;35609;53.166;7.610;2023-05-27T00:33:43;3.40;99.90
49717;DHT22;35609;53.166;7.610;2023-05-27T00:36:09;3.30;99.90
49717;DHT22;35609;53.166;7.610;2023-05-27T00:38:35;3.60;99.90
49717;DHT22;35609;53.166;7.610;2023-05-27T00:41:03;3.60;99.90
49717;DHT22;35609;53.166;7.610;2023-05-27T00:43:29;3.80;99.90
49717;DHT22;35609;53.166;7.610;2023-05-27T00:45:58;3.80;99.90
49717;DHT22;35609;53.166;7.610;2023-05-27T00:48:24;4.10;99.90
49717;DHT22;35609;53.166;7.610;2023-05-27T00:50:50;4.10;99.90
49717;DHT22;35609;53.166;7.610;2023-05-27T00:53:16;4.20;99.90
49717;DHT22;35609;53.166;7.610;2023-05-27T00:55:43;4.30;99.90
49717;DHT22;35609;53.166;7.610;2023-05-27T00:58:09;4.40;99.90
49717;DHT22;35609;53.166;7.610;2023-05-27T01:00:35;4.20;99.90
49717;DHT22;35609;53.166;7.610;2023-05-27T01:03:07;4.10;99.90
49717;DHT22;35609;53.166;7.610;2023-05-27T01:05:33;3.90;99.90
49717;DHT22;35609;53.166;7.610;2023-05-27T01:08:10;3.80;99.90
49717;DHT22;35609;53.166;7.610;2023-05-27T01:10:46;3.80;99.90
49717;DHT22;35609;53.166;7.610;2023-05-27T01:13:35;3.70;99.90
49717;DHT22;35609;53.166;7.610;2023-05-27T01:16:02;3.50;99.90
49717;DHT22;35609;53.166;7.610;2023-05-27T01:18:30;3.50;99.90
49717;DHT22;35609;53.166;7.610;2023-05-27T01:21:07;3.60;99.90
49717;DHT22;35609;53.166;7.610;2023-05-27T01:23:35;3.50;99.90
49717;DHT22;35609;53.166;7.610;2023-05-27T01:26:04;3.60;99.90
49717;DHT22;35609;53.166;7.610;2023-05-27T01:28:30;3.60;99.90
49717;DHT22;35609;53.166;7.610;2023-05-27T01:31:03;3.70;99.90
49717;DHT22;35609;53.166;7.610;2023-05-27T01:33:35;3.70;99.90
49717;DHT22;35609;53.166;7.610;2023-05-27T01:36:09;3.70;99.90
49717;DHT22;35609;53.166;7.610;2023-05-27T01:38:36;3.50;99.90
49717;DHT22;35609;53.166;7.610;2023-05-27T01:41:06;3.70;99.90
49717;DHT22;35609;53.166;7.610;2023-05-27T01:43:32;3.60;99.90
49717;DHT22;35609;53.166;7.610;2023-05-27T01:45:58;3.60;99.90
49717;DHT22;35609;53.166;7.610;2023-05-27T01:48:24;3.50;99.90
49717;DHT22;35609;53.166;7.610;2023-05-27T01:50:50;3.50;99.90
49717;DHT22;35609;53.166;7.610;2023-05-27T01:53:15;3.50;99.90
49717;DHT22;35609;53.166;7.610;2023-05-27T01:55:41;3.40;99.90
49717;DHT22;35609;53.166;7.610;2023-05-27T01:58:07;3.30;99.90
49717;DHT22;35609;53.166;7.610;2023-05-27T02:00:33;3.40;99.90
49717;DHT22;35609;53.166;7.610;2023-05-27T02:02:59;3.50;99.90
49717;DHT22;35609;53.166;7.610;2023-05-27T02:05:25;3.50;99.90
49717;DHT22;35609;53.166;7.610;2023-05-27T02:07:51;3.80;99.90
49717;DHT22;35609;53.166;7.610;2023-05-27T02:10:16;3.90;99.90
49717;DHT22;35609;53.166;7.610;2023-05-27T02:12:42;3.80;99.90
49717;DHT22;35609;53.166;7.610;2023-05-27T02:15:08;3.90;99.90
49717;DHT22;35609;53.166;7.610;2023-05-27T02:17:34;3.90;99.90
49717;DHT22;35609;53.166;7.610;2023-05-27T02:19:59;4.00;99.90
49717;DHT22;35609;53.166;7.610;2023-05-27T02:22:25;3.80;99.90
49717;DHT22;35609;53.166;7.610;2023-05-27T02:24:51;3.90;99.90
49717;DHT22;35609;53.166;7.610;2023-05-27T02:27:17;3.80;99.90
49717;DHT22;35609;53.166;7.610;2023-05-27T02:29:42;3.60;99.90
49717;DHT22;35609;53.166;7.610;2023-05-27T02:32:08;3.50;99.90
49717;DHT22;35609;53.166;7.610;2023-05-27T02:34:33;3.50;99.90
49717;DHT22;35609;53.166;7.610;2023-05-27T02:37:04;3.40;99.90
49717;DHT22;35609;53.166;7.610;2023-05-27T02:39:30;3.40;99.90
49717;DHT22;35609;53.166;7.610;2023-05-27T02:41:56;3.40;99.90
49717;DHT22;35609;53.166;7.610;2023-05-27T02:44:21;3.20;99.90
49717;DHT22;35609;53.166;7.610;2023-05-27T02:46:47;3.30;99.90
49717;DHT22;35609;53.166;7.610;2023-05-27T02:49:12;3.20;99.90
49717;DHT22;35609;53.166;7.610;2023-05-27T02:51:38;3.10;99.90
49717;DHT22;35609;53.166;7.610;2023-05-27T02:54:04;3.10;99.90
49717;DHT22;35609;53.166;7.610;2023-05-27T02:56:29;3.00;99.90
49717;DHT22;35609;53.166;7.610;2023-05-27T02:58:55;2.90;99.90
49717;DHT22;35609;53.166;7.610;2023-05-27T03:01:21;2.70;99.90
49717;DHT22;35609;53.166;7.610;2023-05-27T03:03:47;2.90;99.90
49717;DHT22;35609;53.166;7.610;2023-05-27T03:06:12;2.70;99.90
49717;DHT22;35609;53.166;7.610;2023-05-27T03:08:38;2.80;99.90
49717;DHT22;35609;53.166;7.610;2023-05-27T03:11:04;2.70;99.90
49717;DHT22;35609;53.166;7.610;2023-05-27T03:13:29;2.60;99.90
49717;DHT22;35609;53.166;7.610;2023-05-27T03:15:55;2.70;99.90
49717;DHT22;35609;53.166;7.610;2023-05-27T03:18:21;2.70;99.90
49717;DHT22;35609;53.166;7.610;2023-05-27T03:20:47;2.70;99.90
49717;DHT22;35609;53.166;7.610;2023-05-27T03:23:13;2.60;99.90
49717;DHT22;35609;53.166;7.610;2023-05-27T03:25:38;2.60;99.90
49717;DHT22;35609;53.166;7.610;2023-05-27T03:28:05;2.50;99.90
49717;DHT22;35609;53.166;7.610;2023-05-27T03:30:30;2.50;99.90
49717;DHT22;35609;53.166;7.610;2023-05-27T03:32:56;2.30;99.90
49717;DHT22;35609;53.166;7.610;2023-05-27T03:35:22;2.40;99.90
49717;DHT22;35609;53.166;7.610;2023-05-27T03:37:48;2.50;99.90
49717;DHT22;35609;53.166;7.610;2023-05-27T03:40:13;2.50;99.90
49717;DHT22;35609;53.166;7.610;2023-05-27T03:42:39;2.40;99.90
49717;DHT22;35609;53.166;7.610;2023-05-27T03:45:05;2.50;99.90
49717;DHT22;35609;53.166;7.610;2023-05-27T03:47:31;2.60;99.90
49717;DHT22;35609;53.166;7.610;2023-05-27T03:50:00;2.60;99.90
49717;DHT22;35609;53.166;7.610;2023-05-27T03:52:25;2.50;99.90
49717;DHT22;35609;53.166;7.610;2023-05-27T03:54:51;2.40;99.90
49717;DHT22;35609;53.166;7.610;2023-05-27T03:57:17;2.60;99.90
49717;DHT22;35609;53.166;7.610;2023-05-27T03:59:42;2.60;99.90
49717;DHT22;35609;53.166;7.610;2023-05-27T04:02:08;2.70;99.90
49717;DHT22;35609;53.166;7.610;2023-05-27T04:04:34;2.60;99.90
49717;DHT22;35609;53.166;7.610;2023-05-27T04:06:59;2.70;99.90
49717;DHT22;35609;53.166;7.610;2023-05-27T04:09:26;2.70;99.90
49717;DHT22;35609;53.166;7.610;2023-05-27T04:11:52;2.80;99.90
49717;DHT22;35609;53.166;7.610;2023-05-27T04:14:18;2.80;99.90
49717;DHT22;35609;53.166;7.610;2023-05-27T04:16:43;2.90;99.90
49717;DHT22;35609;53.166;7.610;2023-05-27T04:19:09;2.90;99.90
49717;DHT22;35609;53.166;7.610;2023-05-27T04:21:35;2.90;99.90
49717;DHT22;35609;53.166;7.610;2023-05-27T04:24:04;3.00;99.90
49717;DHT22;35609;53.166;7.610;2023-05-27T04:26:30;3.00;99.90
49717;DHT22;35609;53.166;7.610;2023-05-27T04:28:56;3.20;99.90
49717;DHT22;35609;53.166;7.610;2023-05-27T04:31:25;3.20;99.90
49717;DHT22;35609;53.166;7.610;2023-05-27T04:33:54;3.20;99.90
49717;DHT22;35609;53.166;7.610;2023-05-27T04:36:20;3.50;99.90
49717;DHT22;35609;53.166;7.610;2023-05-27T04:38:51;3.40;99.90
49717;DHT22;35609;53.166;7.610;2023-05-27T04:41:17;3.50;99.90
49717;DHT22;35609;53.166;7.610;2023-05-27T04:43:45;3.60;99.90
49717;DHT22;35609;53.166;7.610;2023-05-27T04:46:11;3.70;99.90
49717;DHT22;35609;53.166;7.610;2023-05-27T04:48:38;3.80;99.90
49717;DHT22;35609;53.166;7.610;2023-05-27T04:51:03;3.90;99.90
49717;DHT22;35609;53.166;7.610;2023-05-27T04:53:30;4.30;99.90
49717;DHT22;35609;53.166;7.610;2023-05-27T04:55:55;4.40;99.90
49717;DHT22;35609;53.166;7.610;2023-05-27T04:58:22;4.50;99.90
49717;DHT22;35609;53.166;7.610;2023-05-27T05:00:48;4.70;99.90
49717;DHT22;35609;53.166;7.610;2023-05-27T05:03:19;4.90;99.90
49717;DHT22;35609;53.166;7.610;2023-05-27T05:05:51;5.10;99.90
49717;DHT22;35609;53.166;7.610;2023-05-27T05:08:21;5.20;99.90
49717;DHT22;35609;53.166;7.610;2023-05-27T05:10:47;5.50;99.90
49717;DHT22;35609;53.166;7.610;2023-05-27T05:13:13;5.80;99.90
49717;DHT22;35609;53.166;7.610;2023-05-27T05:15:40;5.90;99.90
49717;DHT22;35609;53.166;7.610;2023-05-27T05:18:09;6.00;99.90
49717;DHT22;35609;53.166;7.610;2023-05-27T05:20:35;6.20;99.90
49717;DHT22;35609;53.166;7.610;2023-05-27T05:23:01;6.30;99.90
49717;DHT22;35609;53.166;7.610;2023-05-27T05:25:27;6.40;99.90
49717;DHT22;35609;53.166;7.610;2023-05-27T05:27:53;6.70;99.90
49717;DHT22;35609;53.166;7.610;2023-05-27T05:30:19;6.70;99.90
49717;DHT22;35609;53.166;7.610;2023-05-27T05:32:45;7.00;99.90
49717;DHT22;35609;53.166;7.610;2023-05-27T05:35:11;7.10;99.90
49717;DHT22;35609;53.166;7.610;2023-05-27T05:37:36;7.20;99.90
49717;DHT22;35609;53.166;7.610;2023-05-27T05:40:02;7.40;99.90
49717;DHT22;35609;53.166;7.610;2023-05-27T05:42:28;7.50;99.90
49717;DHT22;35609;53.166;7.610;2023-05-27T05:44:54;7.70;99.90
49717;DHT22;35609;53.166;7.610;2023-05-27T05:47:19;7.80;99.90
49717;DHT22;35609;53.166;7.610;2023-05-27T05:49:45;7.90;99.90
49717;DHT22;35609;53.166;7.610;2023-05-27T05:52:11;8.10;99.90
49717;DHT22;35609;53.166;7.610;2023-05-27T05:54:36;8.40;99.90
49717;DHT22;35609;53.166;7.610;2023-05-27T05:57:02;8.70;99.90
49717;DHT22;35609;53.166;7.610;2023-05-27T05:59:28;8.90;99.90
49717;DHT22;35609;53.166;7.610;2023-05-27T06:01:54;9.00;99.90
49717;DHT22;35609;53.166;7.610;2023-05-27T06:04:19;9.30;99.90
49717;DHT22;35609;53.166;7.610;2023-05-27T06:06:45;9.50;99.90
49717;DHT22;35609;53.166;7.610;2023-05-27T06:09:11;9.80;99.90
49717;DHT22;35609;53.166;7.610;2023-05-27T06:11:37;10.10;99.90
49717;DHT22;35609;53.166;7.610;2023-05-27T06:14:03;10.00;99.90
49717;DHT22;35609;53.166;7.610;2023-05-27T06:16:28;10.20;99.90
49717;DHT22;35609;53.166;7.610;2023-05-27T06:18:54;10.20;99.90
49717;DHT22;35609;53.166;7.610;2023-05-27T06:21:20;10.20;99.90
49717;DHT22;35609;53.166;7.610;2023-05-27T06:23:46;10.20;99.90
49717;DHT22;35609;53.166;7.610;2023-05-27T06:26:11;10.20;99.90
49717;DHT22;35609;53.166;7.610;2023-05-27T06:28:37;10.20;99.90
49717;DHT22;35609;53.166;7.610;2023-05-27T06:31:03;10.50;99.90
49717;DHT22;35609;53.166;7.610;2023-05-27T06:33:28;10.70;99.90
49717;DHT22;35609;53.166;7.610;2023-05-27T06:35:54;11.00;99.90
49717;DHT22;35609;53.166;7.610;2023-05-27T06:38:20;11.30;99.90
49717;DHT22;35609;53.166;7.610;2023-05-27T06:40:45;11.70;99.90
49717;DHT22;35609;53.166;7.610;2023-05-27T06:43:11;11.80;99.90
49717;DHT22;35609;53.166;7.610;2023-05-27T06:45:37;12.10;99.90
49717;DHT22;35609;53.166;7.610;2023-05-27T06:48:03;12.40;99.90
49717;DHT22;35609;53.166;7.610;2023-05-27T06:50:28;12.40;99.90
49717;DHT22;35609;53.166;7.610;2023-05-27T06:52:54;12.70;99.90
49717;DHT22;35609;53.166;7.610;2023-05-27T06:55:20;13.00;99.90
49717;DHT22;35609;53.166;7.610;2023-05-27T06:57:45;13.10;99.90
49717;DHT22;35609;53.166;7.610;2023-05-27T07:00:11;13.10;99.90
49717;DHT22;35609;53.166;7.610;2023-05-27T07:02:37;13.40;99.90
49717;DHT22;35609;53.166;7.610;2023-05-27T07:05:03;13.50;99.90
49717;DHT22;35609;53.166;7.610;2023-05-27T07:07:28;13.60;99.90
49717;DHT22;35609;53.166;7.610;2023-05-27T07:09:54;13.80;99.90
49717;DHT22;35609;53.166;7.610;2023-05-27T07:12:20;13.90;99.90
49717;DHT22;35609;53.166;7.610;2023-05-27T07:14:46;14.00;99.90
49717;DHT22;35609;53.166;7.610;2023-05-27T07:17:11;14.00;99.90
49717;DHT22;35609;53.166;7.610;2023-05-27T07:19:37;14.10;99.90
49717;DHT22;35609;53.166;7.610;2023-05-27T07:22:03;13.90;99.90
49717;DHT22;35609;53.166;7.610;2023-05-27T07:24:29;14.00;99.90
49717;DHT22;35609;53.166;7.610;2023-05-27T07:26:54;14.00;99.90
49717;DHT22;35609;53.166;7.610;2023-05-27T07:29:20;13.90;99.90
49717;DHT22;35609;53.166;7.610;2023-05-27T07:31:46;14.10;99.90
49717;DHT22;35609;53.166;7.610;2023-05-27T07:34:12;14.40;99.90
49717;DHT22;35609;53.166;7.610;2023-05-27T07:36:38;14.50;99.90
49717;DHT22;35609;53.166;7.610;2023-05-27T07:39:03;14.90;99.90
49717;DHT22;35609;53.166;7.610;2023-05-27T07:41:29;15.00;99.90
49717;DHT22;35609;53.166;7.610;2023-05-27T07:43:56;15.20;99.90
49717;DHT22;35609;53.166;7.610;2023-05-27T07:46:22;15.30;99.90
49717;DHT22;35609;53.166;7.610;2023-05-27T07:48:48;15.30;99.90
49717;DHT22;35609;53.166;7.610;2023-05-27T07:51:13;15.40;99.90
49717;DHT22;35609;53.166;7.610;2023-05-27T07:53:39;15.50;99.90
49717;DHT22;35609;53.166;7.610;2023-05-27T07:56:05;15.60;99.90
49717;DHT22;35609;53.166;7.610;2023-05-27T07:58:30;15.60;99.90
49717;DHT22;35609;53.166;7.610;2023-05-27T08:00:56;15.60;99.90
49717;DHT22;35609;53.166;7.610;2023-05-27T08:03:22;15.70;99.90
49717;DHT22;35609;53.166;7.610;2023-05-27T08:05:47;15.80;99.90
49717;DHT22;35609;53.166;7.610;2023-05-27T08:08:13;16.00;99.90
49717;DHT22;35609;53.166;7.610;2023-05-27T08:10:39;16.20;99.90
49717;DHT22;35609;53.166;7.610;2023-05-27T08:13:05;16.10;99.90
49717;DHT22;35609;53.166;7.610;2023-05-27T08:15:31;16.20;99.90
49717;DHT22;35609;53.166;7.610;2023-05-27T08:17:57;16.20;99.90
49717;DHT22;35609;53.166;7.610;2023-05-27T08:20:23;16.40;99.90
49717;DHT22;35609;53.166;7.610;2023-05-27T08:22:49;16.60;99.90
49717;DHT22;35609;53.166;7.610;2023-05-27T08:25:14;16.70;99.90
49717;DHT22;35609;53.166;7.610;2023-05-27T08:27:52;17.10;99.90
49717;DHT22;35609;53.166;7.610;2023-05-27T08:30:18;17.20;99.90
49717;DHT22;35609;53.166;7.610;2023-05-27T08:32:44;17.30;99.90
49717;DHT22;35609;53.166;7.610;2023-05-27T08:35:10;17.70;99.90
49717;DHT22;35609;53.166;7.610;2023-05-27T08:37:39;17.90;99.90
49717;DHT22;35609;53.166;7.610;2023-05-27T08:40:09;17.80;99.90
49717;DHT22;35609;53.166;7.610;2023-05-27T08:42:36;18.00;99.90
49717;DHT22;35609;53.166;7.610;2023-05-27T08:45:02;18.30;99.90
49717;DHT22;35609;53.166;7.610;2023-05-27T08:47:31;18.20;99.90
49717;DHT22;35609;53.166;7.610;2023-05-27T08:49:57;18.40;99.90
49717;DHT22;35609;53.166;7.610;2023-05-27T08:52:28;18.60;99.90
49717;DHT22;35609;53.166;7.610;2023-05-27T08:54:55;18.60;99.90
49717;DHT22;35609;53.166;7.610;2023-05-27T08:57:22;18.90;99.90
49717;DHT22;35609;53.166;7.610;2023-05-27T08:59:51;19.10;99.90
49717;DHT22;35609;53.166;7.610;2023-05-27T09:02:18;19.20;99.90
49717;DHT22;35609;53.166;7.610;2023-05-27T09:04:45;19.20;99.90
49717;DHT22;35609;53.166;7.610;2023-05-27T09:14:56;19.40;99.90
49717;DHT22;35609;53.166;7.610;2023-05-27T09:17:23;19.40;99.90
49717;DHT22;35609;53.166;7.610;2023-05-27T09:19:52;19.60;99.90
49717;DHT22;35609;53.166;7.610;2023-05-27T09:22:44;19.70;99.90
49717;DHT22;35609;53.166;7.610;2023-05-27T09:25:10;20.00;99.90
49717;DHT22;35609;53.166;7.610;2023-05-27T09:27:36;20.10;99.90
49717;DHT22;35609;53.166;7.610;2023-05-27T09:30:07;20.60;99.90
49717;DHT22;35609;53.166;7.610;2023-05-27T09:32:33;20.10;98.80
49717;DHT22;35609;53.166;7.610;2023-05-27T09:35:00;20.10;99.90
49717;DHT22;35609;53.166;7.610;2023-05-27T09:37:31;20.30;99.90
49717;DHT22;35609;53.166;7.610;2023-05-27T09:40:10;20.70;99.90
49717;DHT22;35609;53.166;7.610;2023-05-27T09:42:45;20.90;99.90
49717;DHT22;35609;53.166;7.610;2023-05-27T09:45:15;21.20;99.90
49717;DHT22;35609;53.166;7.610;2023-05-27T09:47:46;21.40;99.90
49717;DHT22;35609;53.166;7.610;2023-05-27T09:50:13;21.50;99.50
49717;DHT22;35609;53.166;7.610;2023-05-27T09:52:43;21.70;99.80
49717;DHT22;35609;53.166;7.610;2023-05-27T09:55:11;21.40;99.10
49717;DHT22;35609;53.166;7.610;2023-05-27T09:57:38;21.60;99.20
49717;DHT22;35609;53.166;7.610;2023-05-27T10:00:09;21.80;99.90
49717;DHT22;35609;53.166;7.610;2023-05-27T10:02:45;21.80;99.60
49717;DHT22;35609;53.166;7.610;2023-05-27T10:05:15;21.90;99.70
49717;DHT22;35609;53.166;7.610;2023-05-27T10:07:43;21.90;99.80
49717;DHT22;35609;53.166;7.610;2023-05-27T10:10:23;22.00;97.50
49717;DHT22;35609;53.166;7.610;2023-05-27T10:12:50;22.00;96.90
49717;DHT22;35609;53.166;7.610;2023-05-27T10:15:33;22.20;96.80
49717;DHT22;35609;53.166;7.610;2023-05-27T10:18:04;22.00;96.00
49717;DHT22;35609;53.166;7.610;2023-05-27T10:23:15;22.50;99.60
49717;DHT22;35609;53.166;7.610;2023-05-27T10:25:52;22.60;99.20
49717;DHT22;35609;53.166;7.610;2023-05-27T10:28:33;22.30;97.10
49717;DHT22;35609;53.166;7.610;2023-05-27T10:31:13;22.40;97.30
49717;DHT22;35609;53.166;7.610;2023-05-27T10:33:49;22.40;96.60
49717;DHT22;35609;53.166;7.610;2023-05-27T10:36:24;22.10;96.40
49717;DHT22;35609;53.166;7.610;2023-05-27T10:39:04;22.80;99.40
49717;DHT22;35609;53.166;7.610;2023-05-27T10:44:06;22.90;98.30
49717;DHT22;35609;53.166;7.610;2023-05-27T10:46:43;22.80;98.80
49717;DHT22;35609;53.166;7.610;2023-05-27T10:49:22;23.30;95.90
49717;DHT22;35609;53.166;7.610;2023-05-27T10:51:48;23.00;93.60
49717;DHT22;35609;53.166;7.610;2023-05-27T10:54:15;22.90;96.60
49717;DHT22;35609;53.166;7.610;2023-05-27T10:56:51;22.90;97.10
49717;DHT22;35609;53.166;7.610;2023-05-27T10:59:21;23.20;96.20
49717;DHT22;35609;53.166;7.610;2023-05-27T11:01:51;23.30;95.90
49717;DHT22;35609;53.166;7.610;2023-05-27T11:04:17;23.30;94.50
49717;DHT22;35609;53.166;7.610;2023-05-27T11:07:02;23.70;95.90
49717;DHT22;35609;53.166;7.610;2023-05-27T11:09:27;23.70;95.50
49717;DHT22;35609;53.166;7.610;2023-05-27T11:12:00;24.10;95.60
49717;DHT22;35609;53.166;7.610;2023-05-27T11:14:27;23.70;93.70
49717;DHT22;35609;53.166;7.610;2023-05-27T11:16:53;23.90;93.60
49717;DHT22;35609;53.166;7.610;2023-05-27T11:19:21;23.50;97.20
49717;DHT22;35609;53.166;7.610;2023-05-27T11:21:48;23.90;97.70
49717;DHT22;35609;53.166;7.610;2023-05-27T11:24:20;24.00;92.80
49717;DHT22;35609;53.166;7.610;2023-05-27T11:26:47;23.90;95.70
49717;DHT22;35609;53.166;7.610;2023-05-27T11:29:14;23.60;92.90
49717;DHT22;35609;53.166;7.610;2023-05-27T11:31:40;23.60;96.20
49717;DHT22;35609;53.166;7.610;2023-05-27T11:34:13;23.90;95.40
49717;DHT22;35609;53.166;7.610;2023-05-27T11:36:44;24.00;95.70
49717;DHT22;35609;53.166;7.610;2023-05-27T11:39:12;24.40;95.70
49717;DHT22;35609;53.166;7.610;2023-05-27T11:41:51;24.60;96.30
49717;DHT22;35609;53.166;7.610;2023-05-27T11:44:18;24.70;90.60
49717;DHT22;35609;53.166;7.610;2023-05-27T11:46:46;24.00;95.40
49717;DHT22;35609;53.166;7.610;2023-05-27T11:49:16;24.10;95.30
49717;DHT22;35609;53.166;7.610;2023-05-27T11:51:44;24.00;96.70
49717;DHT22;35609;53.166;7.610;2023-05-27T11:54:27;24.60;96.80
49717;DHT22;35609;53.166;7.610;2023-05-27T11:56:55;24.40;95.50
49717;DHT22;35609;53.166;7.610;2023-05-27T11:59:22;24.00;95.30
49717;DHT22;35609;53.166;7.610;2023-05-27T12:01:49;24.40;96.00
49717;DHT22;35609;53.166;7.610;2023-05-27T12:04:15;24.20;94.90
49717;DHT22;35609;53.166;7.610;2023-05-27T12:06:42;24.50;94.70
49717;DHT22;35609;53.166;7.610;2023-05-27T12:09:09;25.10;94.20
49717;DHT22;35609;53.166;7.610;2023-05-27T12:11:36;25.30;93.30
49717;DHT22;35609;53.166;7.610;2023-05-27T12:14:03;25.30;92.80
49717;DHT22;35609;53.166;7.610;2023-05-27T12:16:29;24.30;90.30
49717;DHT22;35609;53.166;7.610;2023-05-27T12:18:55;24.30;95.80
49717;DHT22;35609;53.166;7.610;2023-05-27T12:21:21;24.70;96.40
49717;DHT22;35609;53.166;7.610;2023-05-27T12:23:47;24.80;93.40
49717;DHT22;35609;53.166;7.610;2023-05-27T12:26:14;25.00;92.70
49717;DHT22;35609;53.166;7.610;2023-05-27T12:28:41;25.50;92.40
49717;DHT22;35609;53.166;7.610;2023-05-27T12:31:07;25.80;94.50
49717;DHT22;35609;53.166;7.610;2023-05-27T12:33:33;26.20;93.80
49717;DHT22;35609;53.166;7.610;2023-05-27T12:36:00;25.90;92.20
49717;DHT22;35609;53.166;7.610;2023-05-27T12:38:26;25.70;91.50
49717;DHT22;35609;53.166;7.610;2023-05-27T12:40:52;25.90;92.60
49717;DHT22;35609;53.166;7.610;2023-05-27T12:43:18;25.60;92.20
49717;DHT22;35609;53.166;7.610;2023-05-27T12:45:45;25.20;93.20
49717;DHT22;35609;53.166;7.610;2023-05-27T12:48:14;25.40;92.80
49717;DHT22;35609;53.166;7.610;2023-05-27T12:50:40;26.00;92.60
49717;DHT22;35609;53.166;7.610;2023-05-27T12:53:08;26.20;88.40
49717;DHT22;35609;53.166;7.610;2023-05-27T12:55:34;26.30;89.20
49717;DHT22;35609;53.166;7.610;2023-05-27T12:58:00;26.30;94.60
49717;DHT22;35609;53.166;7.610;2023-05-27T13:00:27;26.50;91.60
49717;DHT22;35609;53.166;7.610;2023-05-27T13:02:53;25.90;92.50
49717;DHT22;35609;53.166;7.610;2023-05-27T13:05:19;25.80;93.90
49717;DHT22;35609;53.166;7.610;2023-05-27T13:07:54;26.10;90.80
49717;DHT22;35609;53.166;7.610;2023-05-27T13:10:21;25.50;92.10
49717;DHT22;35609;53.166;7.610;2023-05-27T13:12:47;25.10;90.80
49717;DHT22;35609;53.166;7.610;2023-05-27T13:15:13;25.70;92.60
49717;DHT22;35609;53.166;7.610;2023-05-27T13:17:42;26.00;92.00
49717;DHT22;35609;53.166;7.610;2023-05-27T13:20:08;25.70;91.40
49717;DHT22;35609;53.166;7.610;2023-05-27T13:22:34;25.60;91.30
49717;DHT22;35609;53.166;7.610;2023-05-27T13:25:00;25.60;91.90
49717;DHT22;35609;53.166;7.610;2023-05-27T13:27:26;26.10;91.60
49717;DHT22;35609;53.166;7.610;2023-05-27T13:29:52;26.30;89.90
49717;DHT22;35609;53.166;7.610;2023-05-27T13:32:18;26.20;90.30
49717;DHT22;35609;53.166;7.610;2023-05-27T13:34:43;26.60;91.50
49717;DHT22;35609;53.166;7.610;2023-05-27T13:37:09;26.50;92.00
49717;DHT22;35609;53.166;7.610;2023-05-27T13:39:35;26.90;89.30
49717;DHT22;35609;53.166;7.610;2023-05-27T13:42:00;26.90;91.70
49717;DHT22;35609;53.166;7.610;2023-05-27T13:44:26;27.10;88.20
49717;DHT22;35609;53.166;7.610;2023-05-27T13:46:52;27.10;85.50
49717;DHT22;35609;53.166;7.610;2023-05-27T13:49:17;27.10;86.80
49717;DHT22;35609;53.166;7.610;2023-05-27T13:51:44;26.90;86.60
49717;DHT22;35609;53.166;7.610;2023-05-27T13:54:10;26.80;86.90
49717;DHT22;35609;53.166;7.610;2023-05-27T13:56:36;27.00;90.30
49717;DHT22;35609;53.166;7.610;2023-05-27T13:59:02;26.90;90.00
49717;DHT22;35609;53.166;7.610;2023-05-27T14:01:29;26.60;90.00
49717;DHT22;35609;53.166;7.610;2023-05-27T14:03:55;26.70;89.40
49717;DHT22;35609;53.166;7.610;2023-05-27T14:06:21;27.10;90.70
49717;DHT22;35609;53.166;7.610;2023-05-27T14:08:46;26.90;90.30
49717;DHT22;35609;53.166;7.610;2023-05-27T14:11:12;27.10;90.10
49717;DHT22;35609;53.166;7.610;2023-05-27T14:13:38;27.20;87.10
49717;DHT22;35609;53.166;7.610;2023-05-27T14:16:04;27.40;89.50
49717;DHT22;35609;53.166;7.610;2023-05-27T14:18:30;26.70;86.50
49717;DHT22;35609;53.166;7.610;2023-05-27T14:20:56;26.60;83.50
49717;DHT22;35609;53.166;7.610;2023-05-27T14:23:21;26.60;89.50
49717;DHT22;35609;53.166;7.610;2023-05-27T14:25:47;26.90;82.20
49717;DHT22;35609;53.166;7.610;2023-05-27T14:28:13;26.90;84.10
49717;DHT22;35609;53.166;7.610;2023-05-27T14:30:38;26.90;88.00
49717;DHT22;35609;53.166;7.610;2023-05-27T14:33:05;26.60;90.90
49717;DHT22;35609;53.166;7.610;2023-05-27T14:35:39;26.20;85.50
49717;DHT22;35609;53.166;7.610;2023-05-27T14:38:06;26.40;90.50
49717;DHT22;35609;53.166;7.610;2023-05-27T14:40:33;26.70;90.80
49717;DHT22;35609;53.166;7.610;2023-05-27T14:42:59;27.00;90.60
49717;DHT22;35609;53.166;7.610;2023-05-27T14:45:24;27.00;88.10
49717;DHT22;35609;53.166;7.610;2023-05-27T14:47:51;27.20;88.20
49717;DHT22;35609;53.166;7.610;2023-05-27T14:50:17;27.10;87.40
49717;DHT22;35609;53.166;7.610;2023-05-27T14:52:43;26.60;88.40
49717;DHT22;35609;53.166;7.610;2023-05-27T14:55:09;27.30;90.40
49717;DHT22;35609;53.166;7.610;2023-05-27T14:57:35;26.80;87.10
49717;DHT22;35609;53.166;7.610;2023-05-27T15:00:05;27.10;86.00
49717;DHT22;35609;53.166;7.610;2023-05-27T15:02:31;27.30;86.80
49717;DHT22;35609;53.166;7.610;2023-05-27T15:04:57;27.50;82.50
49717;DHT22;35609;53.166;7.610;2023-05-27T15:07:23;27.50;86.10
49717;DHT22;35609;53.166;7.610;2023-05-27T15:12:22;27.20;87.60
49717;DHT22;35609;53.166;7.610;2023-05-27T15:14:47;27.40;86.60
49717;DHT22;35609;53.166;7.610;2023-05-27T15:17:13;27.30;85.30
49717;DHT22;35609;53.166;7.610;2023-05-27T15:19:39;27.00;81.30
49717;DHT22;35609;53.166;7.610;2023-05-27T15:22:05;27.30;84.90
49717;DHT22;35609;53.166;7.610;2023-05-27T15:24:32;27.10;86.10
49717;DHT22;35609;53.166;7.610;2023-05-27T15:26:58;27.30;81.80
49717;DHT22;35609;53.166;7.610;2023-05-27T15:29:24;27.80;84.20
49717;DHT22;35609;53.166;7.610;2023-05-27T15:31:50;27.20;84.90
49717;DHT22;35609;53.166;7.610;2023-05-27T15:34:16;27.20;85.80
49717;DHT22;35609;53.166;7.610;2023-05-27T15:36:41;27.30;85.70
49717;DHT22;35609;53.166;7.610;2023-05-27T15:39:07;27.10;86.40
49717;DHT22;35609;53.166;7.610;2023-05-27T15:41:33;27.10;85.50
49717;DHT22;35609;53.166;7.610;2023-05-27T15:43:59;26.90;87.90
49717;DHT22;35609;53.166;7.610;2023-05-27T15:46:25;26.90;85.30
49717;DHT22;35609;53.166;7.610;2023-05-27T15:48:51;26.60;84.00
49717;DHT22;35609;53.166;7.610;2023-05-27T15:51:18;26.70;85.20
49717;DHT22;35609;53.166;7.610;2023-05-27T15:53:43;26.40;85.90